Time;durP1;ratioP1;P1;durP2;ratioP2;P2;SDS_P1;SDS_P2;PMS_P1;PMS_P2;Temp;Humidity;BMP_temperature;BMP_pressure;BME280_temperature;BME280_humidity;BME280_pressure;Samples;Min_cycle;Max_cycle;Signal;HPM_P1;HPM_P2
2021/05/05 00:01:24;;;;;;;2.83;1.47;;;9.70;75.60;;;;;;5005450;28;20461;-46
2021/05/05 00:03:50;;;;;;;2.27;1.53;;;9.70;75.60;;;;;;5006135;28;20464;-46
2021/05/05 00:06:17;;;;;;;1.87;1.30;;;9.70;75.70;;;;;;5005944;28;20492;-45
2021/05/05 00:08:44;;;;;;;1.43;1.30;;;9.60;75.80;;;;;;5004977;28;20996;-46
2021/05/05 00:11:10;;;;;;;3.60;1.80;;;9.70;75.80;;;;;;5006569;28;20852;-46
2021/05/05 00:13:37;;;;;;;2.23;1.87;;;9.60;75.80;;;;;;5033720;28;20453;-46
2021/05/05 00:16:04;;;;;;;3.90;1.40;;;9.60;75.80;;;;;;5005735;28;20492;-45
2021/05/05 00:18:30;;;;;;;2.83;1.50;;;9.60;75.80;;;;;;5002660;28;20461;-46
2021/05/05 00:20:57;;;;;;;2.30;1.43;;;9.60;75.80;;;;;;5002820;28;20815;-45
2021/05/05 00:23:23;;;;;;;4.77;1.73;;;9.60;75.70;;;;;;5006871;28;20475;-46
2021/05/05 00:25:50;;;;;;;5.37;1.43;;;9.60;75.70;;;;;;5005376;28;20496;-45
2021/05/05 00:28:16;;;;;;;5.90;2.07;;;9.60;75.80;;;;;;5016298;28;20467;-46
2021/05/05 00:30:42;;;;;;;2.87;1.23;;;9.60;75.80;;;;;;5020418;28;20496;-46
2021/05/05 00:33:10;;;;;;;2.00;1.43;;;9.60;75.70;;;;;;5002589;28;20485;-46
2021/05/05 00:35:36;;;;;;;1.97;1.77;;;9.60;75.80;;;;;;5005282;28;20455;-46
2021/05/05 00:38:04;;;;;;;2.57;1.67;;;9.50;76.10;;;;;;5005290;28;20472;-46
2021/05/05 00:40:30;;;;;;;2.30;1.50;;;9.50;76.20;;;;;;5011653;28;20816;-46
2021/05/05 00:42:57;;;;;;;1.80;1.53;;;9.40;76.30;;;;;;5003391;28;20461;-45
2021/05/05 00:45:23;;;;;;;1.50;1.40;;;9.40;76.30;;;;;;5004599;28;20464;-46
2021/05/05 00:47:49;;;;;;;3.57;1.90;;;9.40;76.40;;;;;;5004859;28;20471;-45
2021/05/05 00:50:18;;;;;;;1.90;1.27;;;9.40;76.40;;;;;;5001220;28;20881;-46
2021/05/05 00:52:45;;;;;;;2.10;1.77;;;9.40;76.40;;;;;;5015874;28;20467;-46
2021/05/05 00:55:12;;;;;;;3.10;1.70;;;9.40;76.50;;;;;;5008463;28;20523;-46
2021/05/05 00:57:40;;;;;;;6.30;2.23;;;9.40;76.50;;;;;;5002761;28;20966;-46
2021/05/05 01:00:12;;;;;;;1.87;1.50;;;9.40;76.50;;;;;;5006677;28;20460;-45
2021/05/05 01:02:38;;;;;;;4.17;1.73;;;9.40;76.40;;;;;;5001279;28;20457;-45
2021/05/05 01:05:07;;;;;;;3.77;2.33;;;9.40;76.40;;;;;;5005214;28;20504;-46
2021/05/05 01:07:34;;;;;;;2.37;1.60;;;9.40;76.60;;;;;;5002715;28;20468;-46
2021/05/05 01:10:06;;;;;;;2.63;2.00;;;9.40;76.60;;;;;;5006921;28;20464;-46
2021/05/05 01:12:33;;;;;;;4.17;2.90;;;9.30;76.60;;;;;;5004187;28;20448;-46
2021/05/05 01:14:59;;;;;;;2.57;1.50;;;9.40;76.50;;;;;;4998009;28;20457;-45
2021/05/05 01:17:25;;;;;;;3.70;1.77;;;9.30;76.60;;;;;;5000289;28;20851;-46
2021/05/05 01:19:51;;;;;;;3.47;2.50;;;9.30;76.60;;;;;;5001266;28;20818;-45
2021/05/05 01:22:18;;;;;;;1.50;1.40;;;9.30;76.60;;;;;;5003629;28;20513;-46
2021/05/05 01:24:44;;;;;;;3.27;2.07;;;9.30;76.40;;;;;;5020691;28;20463;-45
2021/05/05 01:27:10;;;;;;;2.20;2.00;;;9.30;76.40;;;;;;5002548;28;20838;-46
2021/05/05 01:29:38;;;;;;;2.60;1.60;;;9.30;76.20;;;;;;5016788;28;20546;-46
2021/05/05 01:32:06;;;;;;;6.30;2.77;;;9.30;76.00;;;;;;5003289;28;20500;-46
2021/05/05 01:34:33;;;;;;;3.43;1.50;;;9.30;75.60;;;;;;5003884;28;20887;-46
2021/05/05 01:37:00;;;;;;;1.80;1.60;;;9.30;75.40;;;;;;5004311;28;20460;-46
2021/05/05 01:39:26;;;;;;;2.07;1.87;;;9.30;75.00;;;;;;5011325;28;20452;-46
2021/05/05 01:41:53;;;;;;;5.10;1.27;;;9.30;74.90;;;;;;5020026;28;20563;-45
2021/05/05 01:44:49;;;;;;;2.87;1.50;;;9.30;74.40;;;;;;5003277;28;20464;-46
2021/05/05 01:47:16;;;;;;;4.70;1.40;;;9.30;74.40;;;;;;4999236;28;21093;-45
2021/05/05 01:49:45;;;;;;;3.80;1.93;;;9.30;73.60;;;;;;5005085;28;20461;-45
2021/05/05 01:52:13;;;;;;;5.67;2.00;;;9.20;73.40;;;;;;5005785;28;20496;-45
2021/05/05 01:54:39;;;;;;;3.50;2.10;;;9.20;72.90;;;;;;5002521;28;20466;-46
2021/05/05 01:57:31;;;;;;;4.83;1.53;;;9.20;72.20;;;;;;5005560;28;20459;-46
2021/05/05 02:00:00;;;;;;;4.47;1.80;;;9.20;71.30;;;;;;5004948;28;20838;-45
2021/05/05 02:02:30;;;;;;;2.87;1.40;;;9.20;71.60;;;;;;5005370;28;20534;-46
2021/05/05 02:04:57;;;;;;;1.47;1.10;;;9.20;71.10;;;;;;5006457;28;20473;-46
2021/05/05 02:07:23;;;;;;;4.67;1.90;;;9.20;70.30;;;;;;5002853;28;20457;-46
2021/05/05 02:09:51;;;;;;;3.03;1.60;;;9.20;69.70;;;;;;5012002;28;20491;-45
2021/05/05 02:12:19;;;;;;;2.70;1.60;;;9.20;69.40;;;;;;5007667;28;20488;-46
2021/05/05 02:14:47;;;;;;;3.43;1.53;;;9.20;69.20;;;;;;5005824;28;20460;-45
2021/05/05 02:17:13;;;;;;;2.07;1.87;;;9.10;67.80;;;;;;5006330;28;20452;-46
2021/05/05 02:19:41;;;;;;;2.43;1.47;;;9.10;68.00;;;;;;5006598;28;21019;-45
2021/05/05 02:22:07;;;;;;;1.93;1.43;;;9.20;67.30;;;;;;5001165;28;20471;-46
2021/05/05 02:24:34;;;;;;;4.10;1.53;;;9.20;67.70;;;;;;5009826;28;20460;-45
2021/05/05 02:27:01;;;;;;;5.17;1.83;;;9.20;67.70;;;;;;5004319;28;20484;-45
2021/05/05 02:29:27;;;;;;;3.07;1.33;;;9.20;68.10;;;;;;5004418;28;20452;-45
2021/05/05 02:31:54;;;;;;;1.63;1.50;;;9.20;68.60;;;;;;5006652;28;20492;-46
2021/05/05 02:34:21;;;;;;;3.23;1.70;;;9.20;69.00;;;;;;5007413;28;20460;-45
2021/05/05 02:36:48;;;;;;;4.70;1.97;;;9.20;69.20;;;;;;5009027;28;20467;-45
2021/05/05 02:39:18;;;;;;;1.37;1.27;;;9.20;69.60;;;;;;5005307;28;20457;-45
2021/05/05 02:41:45;;;;;;;2.73;1.80;;;9.20;69.40;;;;;;5007657;28;20476;-45
2021/05/05 02:44:12;;;;;;;5.60;2.00;;;9.10;69.30;;;;;;5019572;28;20559;-45
2021/05/05 02:46:38;;;;;;;2.23;1.03;;;9.10;69.20;;;;;;5006186;28;20973;-45
2021/05/05 02:49:07;;;;;;;2.67;1.40;;;9.00;69.50;;;;;;5005313;28;20461;-45
2021/05/05 02:51:34;;;;;;;3.13;1.60;;;9.00;69.60;;;;;;5005473;28;20488;-45
2021/05/05 02:54:00;;;;;;;2.90;2.27;;;9.00;70.00;;;;;;5006269;28;20467;-46
2021/05/05 02:56:26;;;;;;;6.13;3.10;;;9.00;70.40;;;;;;5011212;28;20471;-45
2021/05/05 02:58:52;;;;;;;18.23;10.10;;;9.00;70.80;;;;;;5000690;28;20808;-45
2021/05/05 03:01:19;;;;;;;7.33;2.97;;;9.00;70.80;;;;;;5007251;28;20886;-45
2021/05/05 03:03:45;;;;;;;4.13;2.00;;;9.00;70.80;;;;;;5005540;28;20465;-45
2021/05/05 03:06:11;;;;;;;3.73;1.60;;;9.00;70.80;;;;;;5031870;28;20958;-45
2021/05/05 03:08:37;;;;;;;4.03;1.80;;;9.00;70.60;;;;;;5006221;28;20468;-45
2021/05/05 03:11:04;;;;;;;5.50;1.73;;;9.00;70.60;;;;;;5005943;28;20563;-45
2021/05/05 03:13:30;;;;;;;2.27;1.50;;;9.00;70.20;;;;;;5001163;28;20832;-45
2021/05/05 03:15:57;;;;;;;3.73;1.60;;;9.00;70.10;;;;;;5004208;28;20474;-45
2021/05/05 03:18:24;;;;;;;2.83;2.17;;;9.00;69.60;;;;;;5005288;28;20453;-46
2021/05/05 03:20:51;;;;;;;3.43;2.10;;;8.90;69.10;;;;;;5005385;28;20499;-46
2021/05/05 03:23:17;;;;;;;4.57;2.00;;;8.90;69.00;;;;;;5003559;28;20471;-46
2021/05/05 03:25:43;;;;;;;3.17;1.33;;;8.80;68.90;;;;;;5007331;28;20519;-46
2021/05/05 03:28:10;;;;;;;3.33;1.77;;;8.80;69.20;;;;;;5003199;28;20461;-46
2021/05/05 03:30:36;;;;;;;5.70;2.30;;;8.90;68.90;;;;;;5004915;28;20903;-46
2021/05/05 03:33:03;;;;;;;4.57;1.47;;;8.80;69.20;;;;;;5004465;28;20475;-46
2021/05/05 03:35:30;;;;;;;2.63;1.80;;;8.80;69.00;;;;;;5006219;28;20515;-46
2021/05/05 03:37:56;;;;;;;2.73;1.67;;;8.70;68.90;;;;;;5001307;28;20479;-46
2021/05/05 03:40:22;;;;;;;7.17;1.80;;;8.70;68.70;;;;;;5001389;28;20540;-46
2021/05/05 03:42:49;;;;;;;2.97;1.63;;;8.70;68.20;;;;;;5006265;28;21113;-46
2021/05/05 03:45:15;;;;;;;3.53;1.80;;;8.60;68.00;;;;;;5002556;28;21715;-46
2021/05/05 03:47:42;;;;;;;3.30;1.60;;;8.60;68.40;;;;;;5001968;28;21251;-46
2021/05/05 03:50:09;;;;;;;6.70;1.90;;;8.60;68.30;;;;;;5008032;28;20512;-46
2021/05/05 03:52:36;;;;;;;3.40;1.30;;;8.60;68.50;;;;;;5002732;28;21012;-46
2021/05/05 03:55:03;;;;;;;3.53;1.70;;;8.60;68.20;;;;;;5002937;28;20873;-46
2021/05/05 03:57:30;;;;;;;9.00;1.77;;;8.60;67.30;;;;;;5004921;28;20451;-46
2021/05/05 03:59:56;;;;;;;6.47;1.80;;;8.60;67.60;;;;;;5002911;28;20457;-46
2021/05/05 04:02:22;;;;;;;4.43;3.27;;;8.60;67.40;;;;;;5004281;28;20868;-46
2021/05/05 04:04:49;;;;;;;4.93;1.77;;;8.50;67.60;;;;;;4998069;28;20475;-46
2021/05/05 04:07:15;;;;;;;2.63;1.57;;;8.60;67.70;;;;;;5003148;28;20949;-46
2021/05/05 04:09:43;;;;;;;6.60;1.50;;;8.60;67.30;;;;;;5006581;28;20457;-46
2021/05/05 04:12:11;;;;;;;2.17;1.50;;;8.50;67.20;;;;;;5004404;28;20923;-46
2021/05/05 04:14:37;;;;;;;5.20;2.00;;;8.50;67.10;;;;;;5004195;28;20456;-46
2021/05/05 04:17:24;;;;;;;8.30;1.90;;;8.50;67.40;;;;;;5002545;28;20463;-46
2021/05/05 04:20:09;;;;;;;3.43;1.90;;;8.50;66.80;;;;;;5002522;28;20958;-46
2021/05/05 04:22:54;;;;;;;1.83;1.40;;;8.50;66.90;;;;;;5001387;28;21007;-46
2021/05/05 04:25:38;;;;;;;3.77;1.70;;;8.40;66.60;;;;;;5001625;28;20467;-46
2021/05/05 04:28:04;;;;;;;4.10;1.23;;;8.40;66.60;;;;;;5003997;28;20535;-46
2021/05/05 04:30:30;;;;;;;3.40;1.83;;;8.30;66.80;;;;;;5000110;28;20960;-46
2021/05/05 04:32:57;;;;;;;2.73;1.60;;;8.30;67.00;;;;;;5004744;28;20484;-46
2021/05/05 04:35:24;;;;;;;7.60;1.90;;;8.30;67.20;;;;;;4999672;28;20516;-46
2021/05/05 04:37:50;;;;;;;2.57;1.50;;;8.30;66.80;;;;;;5004443;28;21073;-46
2021/05/05 04:40:16;;;;;;;4.00;2.07;;;8.20;66.80;;;;;;5003058;28;20468;-46
2021/05/05 04:42:45;;;;;;;4.40;1.50;;;8.20;66.90;;;;;;5000909;28;20910;-46
2021/05/05 04:45:12;;;;;;;9.17;2.27;;;8.20;67.20;;;;;;5002388;28;20489;-46
2021/05/05 04:47:39;;;;;;;3.73;2.23;;;8.10;67.20;;;;;;5001819;28;20976;-46
2021/05/05 04:50:08;;;;;;;6.00;2.00;;;8.20;67.20;;;;;;5002331;28;20471;-46
2021/05/05 04:52:35;;;;;;;10.50;2.60;;;8.20;67.20;;;;;;5004294;28;20942;-46
2021/05/05 04:55:03;;;;;;;3.60;1.90;;;8.20;67.30;;;;;;5007512;28;20470;-46
2021/05/05 04:57:29;;;;;;;4.73;1.80;;;8.20;67.20;;;;;;5002944;28;20455;-46
2021/05/05 04:59:55;;;;;;;2.67;1.80;;;8.20;67.40;;;;;;5002197;28;20460;-46
2021/05/05 05:02:22;;;;;;;3.00;1.90;;;8.20;67.40;;;;;;5006108;28;20554;-46
2021/05/05 05:04:48;;;;;;;6.10;2.60;;;8.10;67.60;;;;;;5011507;28;20460;-46
2021/05/05 05:07:15;;;;;;;4.37;1.60;;;8.10;67.70;;;;;;5008068;28;20479;-46
2021/05/05 05:09:42;;;;;;;4.10;2.00;;;8.10;67.80;;;;;;5006967;28;20475;-46
2021/05/05 05:12:09;;;;;;;3.47;1.70;;;8.10;67.80;;;;;;5005214;28;20488;-46
2021/05/05 05:14:37;;;;;;;3.90;2.30;;;8.20;67.90;;;;;;5010437;28;20950;-46
2021/05/05 05:17:04;;;;;;;3.20;1.93;;;8.20;67.90;;;;;;5009723;28;20468;-46
2021/05/05 05:19:30;;;;;;;5.33;1.77;;;8.20;68.10;;;;;;5021334;28;20448;-46
2021/05/05 05:21:57;;;;;;;7.77;2.03;;;8.20;68.40;;;;;;5005689;28;20469;-46
2021/05/05 05:24:23;;;;;;;8.80;4.20;;;8.30;67.80;;;;;;5006720;28;20460;-46
2021/05/05 05:26:51;;;;;;;5.90;1.60;;;8.30;68.10;;;;;;5006603;28;20985;-46
2021/05/05 05:29:17;;;;;;;9.27;2.17;;;8.30;68.20;;;;;;5006636;28;20869;-46
2021/05/05 05:31:44;;;;;;;6.83;1.80;;;8.30;68.50;;;;;;5004400;28;20488;-46
2021/05/05 05:34:12;;;;;;;4.33;1.67;;;8.30;68.50;;;;;;5004908;28;20943;-46
2021/05/05 05:36:39;;;;;;;2.97;1.73;;;8.40;68.50;;;;;;5007188;28;20965;-46
2021/05/05 05:39:06;;;;;;;7.50;1.87;;;8.40;68.20;;;;;;5005677;28;20457;-46
2021/05/05 05:41:33;;;;;;;5.00;1.80;;;8.40;68.10;;;;;;5008703;28;20475;-46
2021/05/05 05:43:59;;;;;;;4.57;1.87;;;8.40;68.00;;;;;;5005679;28;20953;-46
2021/05/05 05:46:25;;;;;;;4.20;2.00;;;8.40;68.00;;;;;;5002585;28;20835;-46
2021/05/05 05:48:52;;;;;;;6.10;1.63;;;8.50;67.90;;;;;;5007073;28;20460;-46
2021/05/05 05:51:18;;;;;;;4.37;2.23;;;8.50;67.90;;;;;;5004048;28;20577;-46
2021/05/05 05:53:45;;;;;;;4.67;2.03;;;8.50;67.90;;;;;;5006176;28;20457;-46
2021/05/05 05:56:11;;;;;;;4.77;1.90;;;8.60;67.80;;;;;;5005174;28;20839;-46
2021/05/05 05:58:37;;;;;;;5.93;2.93;;;8.60;67.70;;;;;;5005948;28;20467;-46
2021/05/05 06:01:04;;;;;;;4.77;2.60;;;8.60;67.50;;;;;;5020580;28;20470;-46
2021/05/05 06:03:30;;;;;;;6.57;2.43;;;8.60;67.90;;;;;;5002241;28;20535;-46
2021/05/05 06:05:57;;;;;;;6.00;2.60;;;8.70;67.50;;;;;;5005996;28;20464;-46
2021/05/05 06:08:24;;;;;;;5.47;2.80;;;8.70;67.80;;;;;;5003665;28;21186;-46
2021/05/05 06:10:50;;;;;;;8.00;2.37;;;8.80;67.60;;;;;;5001606;28;20456;-46
2021/05/05 06:13:17;;;;;;;6.60;2.03;;;8.80;67.20;;;;;;5004542;28;20830;-46
2021/05/05 06:15:44;;;;;;;6.43;2.53;;;8.90;67.40;;;;;;5002254;28;20490;-45
2021/05/05 06:18:11;;;;;;;5.37;2.30;;;8.90;67.00;;;;;;5003948;28;20460;-46
2021/05/05 06:20:37;;;;;;;13.00;5.00;;;9.00;66.40;;;;;;5005018;28;20460;-46
2021/05/05 06:23:03;;;;;;;9.53;3.17;;;9.00;66.40;;;;;;5002287;28;20559;-46
2021/05/05 06:25:29;;;;;;;3.93;2.93;;;9.10;66.60;;;;;;5002640;28;20471;-46
2021/05/05 06:27:59;;;;;;;3.80;2.70;;;9.10;66.00;;;;;;5002261;28;20468;-46
2021/05/05 06:30:25;;;;;;;4.90;2.70;;;9.20;66.00;;;;;;5003531;28;20460;-46
2021/05/05 06:32:52;;;;;;;10.90;3.80;;;9.30;66.30;;;;;;5007027;28;20500;-46
2021/05/05 06:35:20;;;;;;;7.50;2.43;;;9.40;66.00;;;;;;5006130;28;20460;-46
2021/05/05 06:37:47;;;;;;;7.17;2.60;;;9.50;65.20;;;;;;5006236;28;20460;-46
2021/05/05 06:40:15;;;;;;;4.27;2.40;;;9.50;65.50;;;;;;5003861;28;20536;-46
2021/05/05 06:42:41;;;;;;;11.83;2.57;;;9.60;63.70;;;;;;5031688;28;20461;-46
2021/05/05 06:45:08;;;;;;;5.23;2.80;;;9.70;64.20;;;;;;5003858;28;20539;-46
2021/05/05 06:47:35;;;;;;;6.90;2.60;;;9.80;64.00;;;;;;5001048;28;20599;-46
2021/05/05 06:50:06;;;;;;;4.50;3.40;;;9.80;64.10;;;;;;5003741;28;20982;-47
2021/05/05 06:52:32;;;;;;;9.77;2.80;;;9.90;63.80;;;;;;5006122;28;20564;-46
2021/05/05 06:54:59;;;;;;;7.40;3.30;;;9.90;63.40;;;;;;5007641;28;21000;-46
2021/05/05 06:57:25;;;;;;;4.60;2.70;;;9.90;63.60;;;;;;5007871;28;20492;-46
2021/05/05 06:59:51;;;;;;;5.17;2.80;;;10.00;64.10;;;;;;4999822;28;20828;-46
2021/05/05 07:02:18;;;;;;;10.13;4.00;;;10.10;64.10;;;;;;5005377;28;20463;-46
2021/05/05 07:04:46;;;;;;;4.40;3.30;;;10.20;63.90;;;;;;4981566;28;608540;-46
2021/05/05 07:07:13;;;;;;;3.23;2.93;;;10.30;63.30;;;;;;5004932;28;20315;-46
2021/05/05 07:09:39;;;;;;;5.13;3.03;;;10.30;63.00;;;;;;5007377;28;20965;-46
2021/05/05 07:12:06;;;;;;;5.10;2.90;;;10.30;62.80;;;;;;4999693;28;20870;-46
2021/05/05 07:14:32;;;;;;;4.83;3.10;;;10.30;63.50;;;;;;5005882;28;20530;-46
2021/05/05 07:16:58;;;;;;;7.33;3.10;;;10.40;63.40;;;;;;5001148;28;20469;-46
2021/05/05 07:19:25;;;;;;;7.50;3.43;;;10.30;62.70;;;;;;5003350;28;20546;-47
2021/05/05 07:21:51;;;;;;;6.17;3.27;;;10.30;62.50;;;;;;5004091;28;20472;-46
2021/05/05 07:24:17;;;;;;;6.30;3.40;;;10.30;62.90;;;;;;5007179;28;20448;-46
2021/05/05 07:26:44;;;;;;;11.93;3.50;;;10.30;63.30;;;;;;4997967;28;20464;-46
2021/05/05 07:29:10;;;;;;;6.33;3.40;;;10.30;63.40;;;;;;5005056;28;20809;-46
2021/05/05 07:31:36;;;;;;;7.23;3.00;;;10.40;63.00;;;;;;5006087;28;21020;-46
2021/05/05 07:34:03;;;;;;;7.00;3.60;;;10.50;63.00;;;;;;5002466;28;20463;-46
2021/05/05 07:36:29;;;;;;;7.93;4.50;;;10.60;63.00;;;;;;5001189;28;20472;-46
2021/05/05 07:39:16;;;;;;;8.13;3.30;;;10.80;61.80;;;;;;5006570;28;20550;-47
2021/05/05 07:47:01;;;;;;;9.90;2.90;;;11.00;62.00;;;;;;5006664;28;20467;-46
2021/05/05 07:49:37;;;;;;;7.60;3.30;;;11.00;60.90;;;;;;5004918;28;22056;-46
2021/05/05 07:52:03;;;;;;;5.40;3.60;;;11.00;61.60;;;;;;5006467;28;20898;-46
2021/05/05 07:54:29;;;;;;;4.73;3.23;;;11.10;60.80;;;;;;5002889;28;20447;-46
2021/05/05 07:56:54;;;;;;;7.23;3.87;;;11.20;59.90;;;;;;5005095;28;20436;-46
2021/05/05 07:59:20;;;;;;;8.80;4.93;;;11.20;60.00;;;;;;5004018;28;20201;-46
2021/05/05 08:01:46;;;;;;;8.90;4.07;;;11.30;59.10;;;;;;5002326;28;20222;-46
2021/05/05 08:04:13;;;;;;;8.80;3.20;;;11.20;58.80;;;;;;5002451;28;20837;-46
2021/05/05 08:06:39;;;;;;;9.10;3.73;;;11.20;59.10;;;;;;5001186;28;20468;-46
2021/05/05 08:09:06;;;;;;;5.63;3.57;;;11.20;60.00;;;;;;5006977;28;20709;-46
2021/05/05 08:11:32;;;;;;;6.37;3.00;;;11.30;59.00;;;;;;5003124;28;20487;-46
2021/05/05 08:13:59;;;;;;;5.20;3.57;;;11.30;59.30;;;;;;5002974;28;20551;-46
2021/05/05 08:16:26;;;;;;;4.17;3.63;;;11.60;57.80;;;;;;4999409;28;20573;-46
2021/05/05 08:18:52;;;;;;;5.47;2.73;;;11.70;56.60;;;;;;5001890;28;20453;-46
2021/05/05 08:21:20;;;;;;;12.13;2.87;;;11.70;56.40;;;;;;5004612;28;20989;-46
2021/05/05 08:23:46;;;;;;;5.47;2.80;;;11.70;56.60;;;;;;5002927;28;20487;-46
2021/05/05 08:26:13;;;;;;;5.53;2.70;;;11.60;56.60;;;;;;5001402;28;20460;-45
2021/05/05 08:28:40;;;;;;;4.77;2.90;;;11.60;57.30;;;;;;5001508;28;20460;-46
2021/05/05 08:31:07;;;;;;;6.10;3.33;;;11.60;57.60;;;;;;5003181;28;21033;-46
2021/05/05 08:33:34;;;;;;;3.80;2.87;;;11.60;57.20;;;;;;5007910;28;20871;-45
2021/05/05 08:36:01;;;;;;;6.73;2.80;;;11.50;57.40;;;;;;5007672;28;20462;-46
2021/05/05 08:38:27;;;;;;;5.63;2.33;;;11.50;56.90;;;;;;5010834;28;20471;-45
2021/05/05 08:40:54;;;;;;;5.10;2.40;;;11.60;55.80;;;;;;5006596;28;20917;-46
2021/05/05 08:43:22;;;;;;;4.93;2.07;;;11.60;56.70;;;;;;5005000;28;20892;-46
2021/05/05 08:45:49;;;;;;;3.83;1.73;;;11.60;55.80;;;;;;5006653;28;20560;-46
2021/05/05 08:48:18;;;;;;;3.70;2.27;;;11.60;54.50;;;;;;5006004;28;20455;-45
2021/05/05 08:50:44;;;;;;;4.60;2.00;;;11.70;55.00;;;;;;5002894;28;20971;-45
2021/05/05 08:53:11;;;;;;;3.97;2.03;;;11.80;54.50;;;;;;5006654;28;21143;-45
2021/05/05 08:55:37;;;;;;;3.60;2.20;;;11.80;54.20;;;;;;5003973;28;20515;-45
2021/05/05 08:58:04;;;;;;;3.73;1.63;;;11.80;54.00;;;;;;5004921;28;20961;-46
2021/05/05 09:00:36;;;;;;;1.77;1.27;;;11.90;53.60;;;;;;5003456;28;20540;-45
2021/05/05 09:03:06;;;;;;;3.63;1.70;;;12.00;53.00;;;;;;5002932;28;20456;-45
2021/05/05 09:06:00;;;;;;;3.27;1.60;;;11.90;52.10;;;;;;5001745;28;20472;-46
2021/05/05 09:08:28;;;;;;;5.43;2.40;;;11.90;51.60;;;;;;5002751;28;20474;-46
2021/05/05 09:11:08;;;;;;;2.27;1.40;;;11.70;54.20;;;;;;5001481;28;20492;-45
2021/05/05 09:13:53;;;;;;;1.73;1.43;;;11.50;59.10;;;;;;5004479;28;20539;-45
2021/05/05 09:16:31;;;;;;;2.20;1.10;;;11.30;60.60;;;;;;5003167;28;20872;-46
2021/05/05 09:19:03;;;;;;;1.57;1.30;;;11.20;60.80;;;;;;5004876;28;20456;-46
2021/05/05 09:21:34;;;;;;;4.13;1.50;;;11.50;62.10;;;;;;5003049;28;20461;-46
2021/05/05 09:24:12;;;;;;;2.87;1.73;;;12.10;59.10;;;;;;5005210;28;20559;-46
2021/05/05 09:26:39;;;;;;;4.27;1.93;;;12.80;56.20;;;;;;5004745;28;20758;-46
2021/05/05 09:29:05;;;;;;;2.43;1.67;;;13.40;54.50;;;;;;5004391;28;20456;-46
2021/05/05 09:31:33;;;;;;;3.03;2.10;;;13.60;53.20;;;;;;4999389;28;20489;-46
2021/05/05 09:34:01;;;;;;;2.10;1.47;;;13.60;50.90;;;;;;5007800;28;20886;-45
2021/05/05 09:36:29;;;;;;;2.20;1.67;;;13.60;52.30;;;;;;4999478;28;20460;-45
2021/05/05 09:38:57;;;;;;;2.23;1.40;;;13.60;52.60;;;;;;5002218;28;20546;-45
2021/05/05 09:41:26;;;;;;;1.67;1.13;;;13.80;51.10;;;;;;5000472;28;20845;-45
2021/05/05 09:43:59;;;;;;;1.70;1.50;;;14.20;49.50;;;;;;5004816;28;20551;-45
2021/05/05 09:46:42;;;;;;;1.60;1.27;;;14.60;48.20;;;;;;5006934;28;20827;-45
2021/05/05 09:49:33;;;;;;;5.53;2.23;;;15.00;46.20;;;;;;5005329;28;20467;-45
2021/05/05 09:52:04;;;;;;;1.70;0.73;;;15.30;45.60;;;;;;5005758;28;20856;-45
2021/05/05 09:54:39;;;;;;;2.17;0.60;;;14.80;46.70;;;;;;5004205;28;20463;-45
2021/05/05 09:57:21;;;;;;;1.77;0.63;;;14.10;47.70;;;;;;5004925;28;20812;-45
2021/05/05 10:00:18;;;;;;;1.37;0.60;;;13.50;49.70;;;;;;5006725;28;20854;-45
2021/05/05 10:02:45;;;;;;;2.63;0.70;;;12.90;51.20;;;;;;5009395;28;20491;-45
2021/05/05 10:05:14;;;;;;;2.03;0.90;;;12.60;53.80;;;;;;5004424;28;21043;-47
2021/05/05 10:07:58;;;;;;;0.73;0.47;;;12.20;55.50;;;;;;5010665;28;20883;-47
2021/05/05 10:10:38;;;;;;;0.70;0.63;;;11.70;55.90;;;;;;5010995;28;20543;-46
2021/05/05 10:13:08;;;;;;;0.60;0.60;;;11.50;56.00;;;;;;5010345;28;20721;-46
2021/05/05 10:15:37;;;;;;;1.00;0.90;;;11.30;56.80;;;;;;5009818;28;20486;-46
2021/05/05 10:18:07;;;;;;;0.83;0.63;;;11.20;57.20;;;;;;5004975;28;20852;-46
2021/05/05 10:20:34;;;;;;;1.00;0.57;;;11.10;57.60;;;;;;5001149;28;20475;-46
2021/05/05 10:23:02;;;;;;;1.70;0.60;;;11.10;57.70;;;;;;5009069;28;20504;-46
2021/05/05 10:25:30;;;;;;;1.37;0.87;;;11.30;58.00;;;;;;5006380;28;20476;-46
2021/05/05 10:27:57;;;;;;;1.50;1.00;;;11.80;56.90;;;;;;5008223;28;20464;-46
2021/05/05 10:30:28;;;;;;;0.77;0.77;;;12.40;55.20;;;;;;5008103;28;20844;-46
2021/05/05 10:33:14;;;;;;;4.30;1.30;;;12.90;53.10;;;;;;5006253;28;20488;-46
2021/05/05 10:35:41;;;;;;;1.13;1.03;;;13.40;52.00;;;;;;5007978;28;20543;-46
2021/05/05 10:38:08;;;;;;;2.77;1.60;;;13.70;50.90;;;;;;5005060;28;20453;-45
2021/05/05 10:40:36;;;;;;;1.70;1.23;;;14.00;50.10;;;;;;5007754;28;20472;-46
2021/05/05 10:43:05;;;;;;;3.50;1.60;;;14.20;50.70;;;;;;5008724;28;20456;-46
2021/05/05 10:45:39;;;;;;;2.47;1.17;;;14.30;50.00;;;;;;5004371;28;20464;-46
2021/05/05 10:48:16;;;;;;;3.03;1.13;;;14.00;54.20;;;;;;5004542;28;20548;-46
2021/05/05 10:50:52;;;;;;;1.43;0.97;;;13.50;57.10;;;;;;5002231;28;20539;-46
2021/05/05 10:53:22;;;;;;;1.30;1.20;;;12.90;59.00;;;;;;5008335;28;20856;-46
2021/05/05 10:55:55;;;;;;;2.40;2.20;;;12.40;59.30;;;;;;5006132;28;20464;-46
2021/05/05 10:58:30;;;;;;;2.90;1.50;;;12.00;62.20;;;;;;5006661;28;20531;-46
2021/05/05 11:01:02;;;;;;;1.77;1.10;;;11.70;62.90;;;;;;5002943;28;20461;-46
2021/05/05 11:03:44;;;;;;;1.57;1.20;;;11.50;65.70;;;;;;5009312;28;20468;-45
2021/05/05 11:06:29;;;;;;;1.60;1.50;;;11.50;66.30;;;;;;5003367;28;20460;-46
2021/05/05 11:08:56;;;;;;;2.10;1.13;;;11.50;65.50;;;;;;5004809;28;20528;-46
2021/05/05 11:11:42;;;;;;;1.50;0.87;;;11.50;65.40;;;;;;5003772;28;20473;-45
2021/05/05 11:14:32;;;;;;;1.67;1.33;;;11.70;62.30;;;;;;5008501;28;20460;-45
2021/05/05 11:17:00;;;;;;;1.40;1.10;;;11.90;63.00;;;;;;5020462;28;21058;-46
2021/05/05 11:19:39;;;;;;;1.03;0.97;;;12.10;59.10;;;;;;5004915;28;20463;-45
2021/05/05 11:22:33;;;;;;;1.20;1.10;;;12.30;60.40;;;;;;5013983;28;20470;-45
2021/05/05 11:25:18;;;;;;;2.60;1.20;;;12.50;63.70;;;;;;5006188;28;20865;-45
2021/05/05 11:27:51;;;;;;;2.10;1.50;;;12.90;58.70;;;;;;5007599;28;20479;-45
2021/05/05 11:30:47;;;;;;;1.80;1.40;;;13.10;58.00;;;;;;5003907;28;20551;-45
2021/05/05 11:33:16;;;;;;;1.70;1.33;;;13.30;57.00;;;;;;5011942;28;20494;-46
2021/05/05 11:35:43;;;;;;;1.70;1.60;;;13.40;56.60;;;;;;5008469;28;20484;-45
2021/05/05 11:38:19;;;;;;;2.33;1.73;;;13.40;56.00;;;;;;5026143;28;20989;-46
2021/05/05 11:40:55;;;;;;;2.27;1.53;;;13.20;57.00;;;;;;5006144;28;20471;-45
2021/05/05 11:43:23;;;;;;;1.80;1.27;;;13.10;58.10;;;;;;5010952;28;20448;-45
2021/05/05 11:45:59;;;;;;;1.50;1.10;;;12.90;57.90;;;;;;5005872;28;20468;-45
2021/05/05 11:48:35;;;;;;;3.50;1.00;;;12.80;56.00;;;;;;5010592;28;20444;-45
2021/05/05 11:51:18;;;;;;;0.70;0.70;;;12.60;55.20;;;;;;5007959;28;20447;-45
2021/05/05 11:53:45;;;;;;;3.50;0.50;;;12.10;56.70;;;;;;5022122;28;20449;-45
2021/05/05 11:56:23;;;;;;;0.60;0.60;;;11.60;58.30;;;;;;5006414;28;20799;-45
2021/05/05 11:58:58;;;;;;;1.63;0.60;;;11.30;58.40;;;;;;5004200;28;20465;-45
2021/05/05 12:01:37;;;;;;;1.37;0.60;;;11.00;60.60;;;;;;5005512;28;20459;-45
2021/05/05 12:04:23;;;;;;;1.03;0.60;;;10.80;60.70;;;;;;5006179;28;21046;-45
2021/05/05 12:06:58;;;;;;;0.60;0.40;;;10.70;61.50;;;;;;5007378;28;20531;-45
2021/05/05 12:09:28;;;;;;;0.90;0.60;;;10.60;61.10;;;;;;5024991;28;20523;-45
2021/05/05 12:12:20;;;;;;;2.10;1.17;;;10.60;61.50;;;;;;5005833;28;21019;-45
2021/05/05 12:14:55;;;;;;;0.80;0.60;;;10.80;61.20;;;;;;5005621;28;20459;-45
2021/05/05 12:17:32;;;;;;;1.30;0.77;;;10.90;61.50;;;;;;5004979;28;20534;-45
2021/05/05 12:20:08;;;;;;;1.87;0.80;;;11.10;61.00;;;;;;5003502;28;20964;-45
2021/05/05 12:22:36;;;;;;;75.40;6.53;;;11.30;59.80;;;;;;5004013;28;21003;-45
2021/05/05 12:25:09;;;;;;;15.60;2.00;;;11.50;58.10;;;;;;5006106;28;20464;-45
2021/05/05 12:27:37;;;;;;;1.47;0.67;;;11.70;58.40;;;;;;5000705;28;20466;-45
2021/05/05 12:30:07;;;;;;;0.83;0.50;;;11.90;62.10;;;;;;5002300;28;20551;-45
2021/05/05 12:32:49;;;;;;;1.10;0.60;;;11.80;63.80;;;;;;5004063;28;20682;-46
2021/05/05 12:35:24;;;;;;;0.50;0.40;;;11.60;64.00;;;;;;4999471;28;20449;-46
2021/05/05 12:37:51;;;;;;;0.90;0.60;;;11.30;65.80;;;;;;5003573;28;20464;-45
2021/05/05 12:40:23;;;;;;;0.73;0.73;;;11.10;66.20;;;;;;5004677;28;20464;-46
2021/05/05 12:42:50;;;;;;;0.80;0.63;;;10.80;67.20;;;;;;5007094;28;20543;-46
2021/05/05 12:45:18;;;;;;;6.17;2.40;;;10.60;67.70;;;;;;5005069;28;20471;-46
2021/05/05 12:47:45;;;;;;;1.17;0.87;;;10.30;68.10;;;;;;4997899;28;20853;-46
2021/05/05 12:50:13;;;;;;;1.20;1.00;;;10.10;69.40;;;;;;5004913;28;20460;-46
2021/05/05 12:52:41;;;;;;;0.80;0.60;;;9.80;71.40;;;;;;4999817;28;20574;-45
2021/05/05 12:55:27;;;;;;;1.17;0.80;;;9.50;73.10;;;;;;5002422;28;20517;-45
2021/05/05 12:58:01;;;;;;;0.80;0.80;;;9.30;74.10;;;;;;5003743;28;20531;-45
2021/05/05 13:00:27;;;;;;;3.80;0.60;;;9.20;74.70;;;;;;5020515;28;20444;-45
2021/05/05 13:03:09;;;;;;;0.87;0.73;;;9.10;74.60;;;;;;5005286;28;20586;-45
2021/05/05 13:05:54;;;;;;;3.67;2.27;;;9.00;75.40;;;;;;5006196;28;20486;-45
2021/05/05 13:08:49;;;;;;;2.50;1.57;;;9.00;76.30;;;;;;5008682;28;20462;-45
2021/05/05 13:11:33;;;;;;;1.10;1.00;;;9.00;76.70;;;;;;5000856;28;20480;-45